Stations météo

réclame
Mon MeteoGroup
Dunstaffnage, Grande-Bretagne (99006): Température de l'air & dewpoint: 20.05.2018 09:00:00 - 26.05.2018 09:00:00 (BST)Dunstaffnage, Grande-Bretagne (99006): Température de l'air -20cm: 20.05.2018 09:00:00 - 26.05.2018 09:00:00 (BST)Dunstaffnage, Grande-Bretagne (99006): Vitesse du vent: 20.05.2018 09:00:00 - 26.05.2018 09:00:00 (BST)Dunstaffnage, Grande-Bretagne (99006): Direction du vent: 20.05.2018 09:00:00 - 26.05.2018 09:00:00 (BST)Dunstaffnage, Grande-Bretagne (99006): Quantités de précipitations: 20.05.2018 09:00:00 - 26.05.2018 09:00:00 (BST)
Date & Time tt [°C] td [°C] tt -20cm [°C] ff [km/h] ff [knt] dd rr [mm]
26.05.2018 09:00:00 - - - - - - -
26.05.2018 08:00:00 13,5 8,3 - 9 5 N 0,0
26.05.2018 07:00:00 12,7 8,6 - 5 3 E 0,0
26.05.2018 06:00:00 10,8 7,2 - 5 3 ESE 0,0
26.05.2018 05:00:00 11,0 6,9 - 4 2 ENE 0,0
26.05.2018 04:00:00 11,0 7,0 - 2 1 WSW 0,0
26.05.2018 03:00:00 12,1 7,2 - 8 4 NE 0,0
26.05.2018 02:00:00 11,8 7,5 - 13 7 N 0,0
26.05.2018 01:00:00 12,9 7,4 - 13 7 NNE 0,0
26.05.2018 00:00:00 13,6 8,4 - 5 3 E 0,0
25.05.2018 23:00:00 15,0 8,8 - 9 5 NE 0,0
25.05.2018 22:00:00 16,9 9,6 - 8 4 NNE 0,0
25.05.2018 21:00:00 17,6 10,0 - 4 2 E 0,0
25.05.2018 20:00:00 18,8 10,6 - 4 2 E 0,0
25.05.2018 19:00:00 20,5 11,3 - 5 3 NNE 0,0
25.05.2018 18:00:00 21,4 10,7 - 11 6 N 0,0
25.05.2018 17:00:00 21,2 11,0 - 11 6 NNE 0,0
25.05.2018 16:00:00 20,8 10,5 - 15 8 N 0,0
25.05.2018 15:00:00 22,7 11,2 - 13 7 N 0,0
25.05.2018 14:00:00 22,6 11,0 - 9 5 N 0,0
25.05.2018 13:00:00 21,3 10,6 - 13 7 N 0,0
25.05.2018 12:00:00 20,3 11,1 - 11 6 NNW 0,0
25.05.2018 11:00:00 18,0 12,8 - 11 6 W 0,0
25.05.2018 10:00:00 16,3 11,9 14,0 9 5 W 0,0
25.05.2018 09:00:00 14,2 10,5 - 4 2 W 0,0
25.05.2018 08:00:00 12,7 10,6 - 5 3 W 0,0
25.05.2018 07:00:00 10,7 10,0 - 2 1 ENE 0,0
25.05.2018 06:00:00 9,1 8,6 - 4 2 NE 0,0
25.05.2018 05:00:00 8,4 7,8 - 4 2 SW 0,0
25.05.2018 04:00:00 8,5 7,8 - 2 1 SW 0,0
25.05.2018 03:00:00 8,6 7,7 - 2 1 S 0,0
25.05.2018 02:00:00 9,3 8,0 - 0 0 N 0,0
25.05.2018 01:00:00 10,6 8,5 - 2 1 S 0,0
25.05.2018 00:00:00 12,3 9,2 - 8 4 SSW 0,0
24.05.2018 23:00:00 12,6 9,2 - 13 7 SSW 0,0
24.05.2018 22:00:00 13,2 9,2 - 9 5 W 0,0
24.05.2018 21:00:00 14,4 9,1 - 13 7 SW 0,0
24.05.2018 20:00:00 21,9 9,2 - 4 2 W 0,0
24.05.2018 19:00:00 21,6 9,8 - 5 3 WNW 0,0
24.05.2018 18:00:00 21,7 10,0 - 11 6 W 0,0
24.05.2018 17:00:00 19,8 9,8 - 9 5 W 0,0
24.05.2018 16:00:00 20,5 12,1 - 11 6 WNW 0,0
24.05.2018 15:00:00 21,0 12,5 - 11 6 W 0,0
24.05.2018 14:00:00 20,0 12,0 - 13 7 W 0,0
24.05.2018 13:00:00 19,7 12,9 - 11 6 W 0,0
24.05.2018 12:00:00 18,2 11,5 - 11 6 WNW 0,0
24.05.2018 11:00:00 18,9 11,3 - 15 8 E 0,0
24.05.2018 10:00:00 16,6 10,1 13,0 18 10 E 0,0
24.05.2018 09:00:00 14,0 9,0 - 18 10 E 0,0
24.05.2018 08:00:00 12,4 7,8 - 22 12 E 0,0
24.05.2018 07:00:00 11,3 7,2 - 24 13 E 0,0
24.05.2018 06:00:00 10,0 6,9 - 15 8 E 0,0
24.05.2018 05:00:00 10,5 6,9 - 22 12 E 0,0
24.05.2018 04:00:00 11,6 7,0 - 24 13 ESE 0,0
24.05.2018 03:00:00 12,2 7,3 - 22 12 ESE 0,0
24.05.2018 02:00:00 11,3 8,1 - 11 6 ENE 0,0
24.05.2018 01:00:00 13,7 7,9 - 18 10 ESE 0,0
24.05.2018 00:00:00 11,8 8,3 - 8 4 E 0,0
23.05.2018 23:00:00 12,7 8,0 - 11 6 ESE 0,0
23.05.2018 22:00:00 14,1 9,2 - 9 5 SSE 0,0
23.05.2018 21:00:00 14,5 7,3 - 5 3 ENE 0,0
23.05.2018 20:00:00 18,0 8,4 - 8 4 WSW 0,0
23.05.2018 19:00:00 18,6 9,5 - 9 5 WNW 0,0
23.05.2018 18:00:00 19,3 11,0 - 9 5 W 0,0
23.05.2018 17:00:00 17,7 10,7 - 15 8 WNW 0,0
23.05.2018 16:00:00 19,1 11,1 - 15 8 W 0,0
23.05.2018 15:00:00 17,5 10,4 - 11 6 WNW 0,0
23.05.2018 14:00:00 18,7 12,1 - 8 4 NNW 0,0
23.05.2018 13:00:00 15,4 9,6 - 11 6 NNW 0,0
23.05.2018 12:00:00 15,5 9,2 - 9 5 NNW 0,0
23.05.2018 11:00:00 16,4 9,8 - 8 4 E 0,0
23.05.2018 10:00:00 14,8 9,2 12,0 13 7 E 0,0
23.05.2018 09:00:00 13,3 9,0 - 13 7 E 0,0
23.05.2018 08:00:00 11,2 9,6 - 13 7 E 0,0
23.05.2018 07:00:00 8,3 8,0 - 2 1 E 0,0
23.05.2018 06:00:00 6,3 5,8 - 2 1 ESE 0,0
23.05.2018 05:00:00 6,6 6,0 - 4 2 SSW 0,0
23.05.2018 04:00:00 7,5 6,6 - 2 1 SSW 0,0
23.05.2018 03:00:00 9,2 8,3 - 2 1 S 0,0
23.05.2018 02:00:00 10,1 9,0 - 2 1 S 0,0
23.05.2018 01:00:00 10,4 9,0 - 4 2 W 0,0
23.05.2018 00:00:00 10,7 9,1 - 2 1 WSW 0,0
22.05.2018 23:00:00 11,4 9,3 - 2 1 SSE 0,0
22.05.2018 22:00:00 11,9 8,5 - 2 1 S 0,0
22.05.2018 21:00:00 12,5 8,5 - 4 2 ENE 0,0
22.05.2018 20:00:00 13,2 8,9 - 4 2 WNW 0,0
22.05.2018 19:00:00 13,5 8,5 - 9 5 N 0,0
22.05.2018 18:00:00 13,7 8,1 - 13 7 N 0,0
22.05.2018 17:00:00 14,8 8,7 - 11 6 N 0,0
22.05.2018 16:00:00 12,8 7,4 - 11 6 N 0,0
22.05.2018 15:00:00 12,7 7,5 - 9 5 NNE 0,0
22.05.2018 14:00:00 13,6 8,6 - 5 3 N 0,0
22.05.2018 13:00:00 12,9 7,9 - 4 2 N 0,0
22.05.2018 12:00:00 11,2 7,7 - 4 2 NNE 0,0
22.05.2018 11:00:00 10,0 6,8 - 8 4 NNE 0,0
22.05.2018 10:00:00 9,6 6,4 11,7 8 4 N 0,0
22.05.2018 09:00:00 9,2 6,1 - 9 5 N 0,0
22.05.2018 08:00:00 8,9 6,0 - 9 5 N 0,0
22.05.2018 07:00:00 8,5 6,0 - 11 6 N 0,0
22.05.2018 06:00:00 8,2 5,7 - 11 6 N 0,0
22.05.2018 05:00:00 7,9 5,7 - 13 7 N 0,0
22.05.2018 04:00:00 8,3 5,9 - 11 6 N 0,0
22.05.2018 03:00:00 8,2 5,5 - 13 7 N 0,0
22.05.2018 02:00:00 8,1 5,8 - 11 6 N 0,0
22.05.2018 01:00:00 8,2 6,3 - 11 6 NNE 0,0
22.05.2018 00:00:00 8,6 6,7 - 15 8 NNE 0,0
21.05.2018 23:00:00 8,8 6,9 - 11 6 N 0,0
21.05.2018 22:00:00 8,8 7,3 - 5 3 N 0,0
21.05.2018 21:00:00 8,8 7,1 - 5 3 N 0,6
21.05.2018 20:00:00 8,8 7,2 - 5 3 NNE 0,8
21.05.2018 19:00:00 8,7 7,3 - 16 9 WNW 0,6
21.05.2018 18:00:00 9,3 7,3 - 15 8 WNW 0,0
21.05.2018 17:00:00 9,9 8,1 - 9 5 W 0,0
21.05.2018 16:00:00 9,5 8,1 - 5 3 WNW 0,0
21.05.2018 15:00:00 9,7 8,2 - 4 2 WSW 0,0
21.05.2018 14:00:00 9,4 8,4 - 9 5 NW 0,2
21.05.2018 13:00:00 9,6 9,1 - 15 8 WNW 0,8
21.05.2018 12:00:00 11,0 10,6 - 8 4 E 0,8
21.05.2018 11:00:00 10,9 10,5 - 5 3 ESE 0,4
21.05.2018 10:00:00 10,6 10,0 12,7 8 4 ENE 1,8
21.05.2018 09:00:00 10,2 9,4 - 5 3 WNW 0,6
21.05.2018 08:00:00 10,9 10,0 - 4 2 SW 0,0
21.05.2018 07:00:00 10,9 9,9 - 5 3 S 0,6
21.05.2018 06:00:00 10,7 10,0 - 4 2 SE 1,6
21.05.2018 05:00:00 10,9 10,0 - 9 5 E 1,2
21.05.2018 04:00:00 11,1 10,3 - 9 5 E 0,2
21.05.2018 03:00:00 10,6 9,9 - 13 7 E 0,6
21.05.2018 02:00:00 10,7 9,9 - 9 5 ESE 0,4
21.05.2018 01:00:00 10,4 9,7 - 8 4 E 1,8
21.05.2018 00:00:00 10,7 9,8 - 8 4 E 1,4
20.05.2018 23:00:00 11,4 10,4 - 13 7 ESE 0,4
20.05.2018 22:00:00 11,2 9,9 - 8 4 E 0,2
20.05.2018 21:00:00 11,7 10,1 - 8 4 ESE 0,0
20.05.2018 20:00:00 12,4 10,5 - 4 2 E 0,0
20.05.2018 19:00:00 12,8 10,9 - 16 9 ESE 0,0
20.05.2018 18:00:00 12,7 11,3 - 15 8 ESE 0,0
20.05.2018 17:00:00 12,6 11,4 - 11 6 SE 1,0
20.05.2018 16:00:00 12,4 11,5 - 11 6 E 1,0
20.05.2018 15:00:00 12,6 11,5 - 9 5 S 1,2
20.05.2018 14:00:00 12,7 11,5 - 13 7 S 0,6
20.05.2018 13:00:00 12,9 11,8 - 11 6 S 0,6
20.05.2018 12:00:00 12,8 11,8 - 9 5 SSE 1,2
20.05.2018 11:00:00 12,4 10,9 - 9 5 S 0,8
20.05.2018 10:00:00 12,3 10,7 12,9 13 7 S 0,4
20.05.2018 09:00:00 12,1 10,3 - 13 7 S 0,2

tt = Température de l'air
td = dewpoint
tt -20cm = Température de l'air -20cm
ff = Vitesse du vent
dd = Direction du vent
rr = Quantités de précipitations

stations d'obs. à proximité